Tarpon Springs, Florida
Current Conditions -  °F | °C
As of 1:55 AM on Sunday 26 Oct 2014 (Local Time) from KCLW Reporting Station
Clear Clear  
Wind Chill: 63°   Ceiling: Unl
Heat Index: 63°   Visibility: 10mi
Dew Point: 55°   Wind: 5mph
Humidity: 77%   Direction: 40°NE
Pressure: 29.99"   Gusts: NA
Location:  28.15°N, 82.75°W
Report Text: KCLW 260555Z AUTO 04004KT 10SM CLR 17/13 A2999 RMK AO2
Loading
Personal Weather Stations






























Interactive Weather Map
Tropical Storm Tracking
New forecast layout! Learn more

10-Day Weather Forecast

Advertisements
Track Severe Weather on mobile